Picuris, New Mexico
Current Conditions -  °F | °C
As of 3:15 PM on Tuesday 25 Nov 2014 (Local Time) from KSKX Reporting Station
Clear Clear  
Wind Chill: 27°   Ceiling: Unl
Heat Index: 36°   Visibility: 10mi
Dew Point: 12°   Wind: 13mph
Humidity: 38%   Direction: 240°WSW
Pressure: 30.22"   Gusts: NA
Location:  36.1709°N, 105.75°W
Report Text: KSKX 252215Z AUTO 24011KT 10SM CLR 02/M11 A3022 RMK AO1
Loading
Personal Weather Stations






























Interactive Weather Map New forecast layout! Learn more

10-Day Weather Forecast

Advertisements
Track Severe Weather on mobile